Weather reports worldwide

Advertisment
Cassley, United Kingdom (99003): temperature & dewpoint: 17.05.2019 13:00:00 - 23.05.2019 13:00:00 (BST)Cassley, United Kingdom (99003): precipitation: 17.05.2019 13:00:00 - 23.05.2019 13:00:00 (BST)
Date & Time tt [°C] td [°C] rr [mm]
23.05.2019 13:00:00 - - 1,0
23.05.2019 12:00:00 8,9 7,4 0,6
23.05.2019 11:00:00 8,8 7,4 1,0
23.05.2019 10:00:00 8,5 7,1 0,6
23.05.2019 09:00:00 7,9 6,6 0,4
23.05.2019 08:00:00 7,9 6,2 0,2
23.05.2019 07:00:00 8,1 6,6 0,2
23.05.2019 06:00:00 8,1 6,5 0,2
23.05.2019 05:00:00 8,2 6,9 0,6
23.05.2019 04:00:00 8,2 6,9 0,6
23.05.2019 03:00:00 8,5 7,4 0,8
23.05.2019 02:00:00 8,8 7,6 0,6
23.05.2019 01:00:00 8,9 7,5 0,6
23.05.2019 00:00:00 8,6 7,5 0,6
22.05.2019 23:00:00 8,5 7,5 0,6
22.05.2019 22:00:00 8,6 7,2 0,2
22.05.2019 21:00:00 8,8 7,6 0,4
22.05.2019 20:00:00 9,2 8,0 0,2
22.05.2019 19:00:00 9,4 7,9 0,2
22.05.2019 18:00:00 9,7 8,4 0,2
22.05.2019 17:00:00 9,9 8,3 0,0
22.05.2019 16:00:00 10,1 8,8 0,2
22.05.2019 15:00:00 9,4 8,0 0,4
22.05.2019 14:00:00 10,4 9,0 0,0
22.05.2019 13:00:00 9,8 8,4 0,2
22.05.2019 12:00:00 10,8 8,5 0,0
22.05.2019 11:00:00 10,0 8,4 0,4
22.05.2019 10:00:00 9,6 8,3 0,2
22.05.2019 09:00:00 10,0 8,9 0,0
22.05.2019 08:00:00 9,7 8,2 0,0
22.05.2019 07:00:00 9,5 7,8 0,0
22.05.2019 06:00:00 9,6 8,0 0,0
22.05.2019 05:00:00 9,6 8,5 0,4
22.05.2019 04:00:00 9,1 8,0 0,0
22.05.2019 03:00:00 8,5 7,5 0,2
22.05.2019 02:00:00 8,3 7,1 0,0
22.05.2019 01:00:00 8,5 6,3 0,0
22.05.2019 00:00:00 8,1 6,2 0,0
21.05.2019 23:00:00 8,0 6,3 0,0
21.05.2019 22:00:00 8,0 6,1 0,0
21.05.2019 21:00:00 8,1 6,3 0,0
21.05.2019 20:00:00 8,8 6,5 0,0
21.05.2019 19:00:00 11,0 5,2 0,0
21.05.2019 18:00:00 11,6 4,9 0,0
21.05.2019 17:00:00 11,8 4,7 0,0
21.05.2019 16:00:00 11,7 4,6 0,0
21.05.2019 15:00:00 11,9 5,1 0,0
21.05.2019 14:00:00 13,3 6,1 0,0
21.05.2019 13:00:00 12,8 4,4 0,0
21.05.2019 12:00:00 12,4 5,1 0,0
21.05.2019 11:00:00 12,4 6,7 0,0
21.05.2019 10:00:00 9,3 6,7 0,0
21.05.2019 09:00:00 8,8 6,4 0,0
21.05.2019 08:00:00 9,5 6,5 0,0
21.05.2019 07:00:00 8,7 6,6 0,0
21.05.2019 06:00:00 8,7 7,0 0,0
21.05.2019 05:00:00 8,2 6,7 0,0
21.05.2019 04:00:00 8,7 6,7 0,0
21.05.2019 03:00:00 8,4 6,6 0,0
21.05.2019 02:00:00 8,9 6,7 0,0
21.05.2019 01:00:00 8,9 6,9 0,0
21.05.2019 00:00:00 8,4 6,5 0,0
20.05.2019 23:00:00 8,7 6,7 0,0
20.05.2019 22:00:00 9,1 6,7 0,0
20.05.2019 21:00:00 9,7 7,1 0,0
20.05.2019 20:00:00 10,7 7,6 0,0
20.05.2019 19:00:00 11,9 7,9 0,0
20.05.2019 18:00:00 13,0 6,6 0,0
20.05.2019 17:00:00 13,4 7,4 0,0
20.05.2019 16:00:00 12,9 8,2 0,0
20.05.2019 15:00:00 12,6 8,5 0,0
20.05.2019 14:00:00 12,2 8,2 0,0
20.05.2019 13:00:00 13,1 9,6 0,0
20.05.2019 12:00:00 12,7 9,3 0,0
20.05.2019 11:00:00 11,8 9,1 0,0
20.05.2019 10:00:00 12,1 8,8 0,0
20.05.2019 09:00:00 11,5 9,1 0,0
20.05.2019 08:00:00 10,9 9,0 0,0
20.05.2019 07:00:00 10,4 9,3 0,2
20.05.2019 06:00:00 9,8 9,1 1,2
20.05.2019 05:00:00 9,8 9,1 1,0
20.05.2019 04:00:00 9,8 9,1 0,0
20.05.2019 03:00:00 9,8 9,2 0,0
20.05.2019 02:00:00 9,8 9,2 0,0
20.05.2019 01:00:00 9,8 9,2 0,0
20.05.2019 00:00:00 9,9 9,4 0,4
19.05.2019 23:00:00 10,0 9,4 0,8
19.05.2019 22:00:00 10,3 9,4 0,4
19.05.2019 21:00:00 10,8 9,4 0,0
19.05.2019 20:00:00 11,1 9,3 0,2
19.05.2019 19:00:00 11,2 9,5 0,4
19.05.2019 18:00:00 12,2 10,9 0,0
19.05.2019 17:00:00 11,8 10,6 0,6
19.05.2019 16:00:00 12,0 10,2 0,4
19.05.2019 15:00:00 13,5 10,2 0,0
19.05.2019 14:00:00 14,2 8,5 0,0
19.05.2019 13:00:00 14,4 8,7 0,0
19.05.2019 12:00:00 13,0 9,1 0,0
19.05.2019 11:00:00 11,8 9,4 0,0
19.05.2019 10:00:00 11,1 9,6 0,0
19.05.2019 09:00:00 10,6 9,1 0,0
19.05.2019 08:00:00 10,3 8,9 0,0
19.05.2019 07:00:00 10,1 9,1 0,0
19.05.2019 06:00:00 9,7 9,0 0,0
19.05.2019 05:00:00 9,5 9,0 0,0
19.05.2019 04:00:00 9,6 9,2 0,0
19.05.2019 03:00:00 9,6 9,2 0,0
19.05.2019 02:00:00 9,5 9,0 0,0
19.05.2019 01:00:00 9,5 8,9 0,0
19.05.2019 00:00:00 9,8 8,9 0,0
18.05.2019 23:00:00 9,7 8,7 0,0
18.05.2019 22:00:00 9,9 8,7 0,0
18.05.2019 21:00:00 9,8 8,5 0,0
18.05.2019 20:00:00 10,2 8,8 0,2
18.05.2019 19:00:00 10,5 9,4 0,0
18.05.2019 18:00:00 10,6 9,5 2,0
18.05.2019 17:00:00 11,3 9,2 0,4
18.05.2019 16:00:00 11,0 9,8 0,4
18.05.2019 15:00:00 10,7 9,5 1,0
18.05.2019 14:00:00 10,7 8,7 0,6
18.05.2019 13:00:00 12,0 8,5 0,0
18.05.2019 12:00:00 11,8 7,8 0,0
18.05.2019 11:00:00 12,9 6,9 0,0
18.05.2019 10:00:00 11,4 7,5 0,0
18.05.2019 09:00:00 10,1 7,3 0,0
18.05.2019 08:00:00 9,7 6,9 0,0
18.05.2019 07:00:00 9,1 7,7 0,0
18.05.2019 06:00:00 8,8 7,5 0,0
18.05.2019 05:00:00 7,8 6,5 0,0
18.05.2019 04:00:00 7,7 6,5 0,0
18.05.2019 03:00:00 8,1 6,7 0,0
18.05.2019 02:00:00 8,1 6,6 0,4
18.05.2019 01:00:00 8,5 5,4 0,4
18.05.2019 00:00:00 9,0 4,6 0,0
17.05.2019 23:00:00 9,1 4,5 0,0
17.05.2019 22:00:00 9,9 3,7 0,0
17.05.2019 21:00:00 12,3 2,7 0,0
17.05.2019 20:00:00 14,0 2,0 0,0
17.05.2019 19:00:00 15,6 1,8 0,0
17.05.2019 18:00:00 16,5 4,5 0,0
17.05.2019 17:00:00 17,9 4,5 0,0
17.05.2019 16:00:00 18,0 4,5 0,0
17.05.2019 15:00:00 18,4 3,4 0,0
17.05.2019 14:00:00 16,7 5,0 0,0
17.05.2019 13:00:00 16,4 4,3 0,0

tt = temperature
td = dewpoint
rr = precipitation

Next stations